Time;durP1;ratioP1;P1;durP2;ratioP2;P2;SDS_P1;SDS_P2;PMS_P1;PMS_P2;Temp;Humidity;BMP_temperature;BMP_pressure;BME280_temperature;BME280_humidity;BME280_pressure;Samples;Min_cycle;Max_cycle;Signal;HPM_P1;HPM_P2
2021/03/23 00:00:59;;;;;;;7.27;2.33;;;;;;;;;;4980730;28;20626;-47
2021/03/23 00:03:34;;;;;;;12.40;2.83;;;;;;;;;;4980365;28;20195;-48
2021/03/23 00:06:00;;;;;;;4.03;1.97;;;;;;;;;;4974308;28;20783;-49
2021/03/23 00:08:29;;;;;;;6.23;2.30;;;;;;;;;;4984933;28;20267;-47
2021/03/23 00:10:57;;;;;;;5.47;2.30;;;;;;;;;;4982698;28;20660;-47
2021/03/23 00:13:22;;;;;;;6.67;2.60;;;;;;;;;;4979599;28;20203;-48
2021/03/23 00:15:48;;;;;;;6.07;2.20;;;;;;;;;;4982703;28;20208;-46
2021/03/23 00:18:15;;;;;;;7.77;2.67;;;;;;;;;;4982998;28;20672;-47
2021/03/23 00:20:40;;;;;;;7.40;2.13;;;;;;;;;;4973166;28;20766;-47
2021/03/23 00:23:06;;;;;;;5.53;2.40;;;;;;;;;;4986113;28;20200;-46
2021/03/23 00:25:32;;;;;;;4.70;2.50;;;;;;;;;;4985434;28;20216;-46
2021/03/23 00:27:57;;;;;;;4.93;2.20;;;;;;;;;;4970442;28;20702;-46
2021/03/23 00:30:22;;;;;;;5.33;2.33;;;;;;;;;;4990008;28;20263;-48
2021/03/23 00:32:48;;;;;;;5.77;1.90;;;;;;;;;;4982098;28;20215;-46
2021/03/23 00:35:14;;;;;;;8.37;2.27;;;;;;;;;;4984410;28;20218;-47
2021/03/23 00:37:40;;;;;;;5.53;2.10;;;;;;;;;;4990902;28;20303;-46
2021/03/23 00:40:09;;;;;;;9.90;1.97;;;;;;;;;;4990679;28;20633;-49
2021/03/23 00:42:34;;;;;;;5.60;2.40;;;;;;;;;;4987827;28;20199;-46
2021/03/23 00:45:00;;;;;;;9.63;3.07;;;;;;;;;;4986398;28;20235;-46
2021/03/23 00:47:25;;;;;;;10.30;2.70;;;;;;;;;;4979278;28;20217;-48
2021/03/23 00:49:51;;;;;;;6.33;2.67;;;;;;;;;;4990713;28;20183;-46
2021/03/23 00:52:16;;;;;;;8.23;3.30;;;;;;;;;;4987255;28;20219;-48
2021/03/23 00:54:41;;;;;;;7.97;3.47;;;;;;;;;;4986049;28;20231;-47
2021/03/23 00:57:06;;;;;;;6.97;2.80;;;;;;;;;;4987812;28;20188;-47
2021/03/23 00:59:32;;;;;;;7.40;3.63;;;;;;;;;;4984683;28;20183;-47
2021/03/23 01:01:57;;;;;;;11.43;3.90;;;;;;;;;;4982803;28;20275;-46
2021/03/23 01:04:22;;;;;;;10.60;4.10;;;;;;;;;;4983869;28;20193;-46
2021/03/23 01:06:48;;;;;;;9.07;4.07;;;;;;;;;;4981531;28;20208;-47
2021/03/23 01:09:13;;;;;;;7.67;4.33;;;;;;;;;;4977119;28;20820;-47
2021/03/23 01:11:39;;;;;;;7.43;4.07;;;;;;;;;;4981259;28;20192;-47
2021/03/23 01:14:04;;;;;;;9.37;4.50;;;;;;;;;;4986027;28;20192;-47
2021/03/23 01:16:29;;;;;;;9.03;4.77;;;;;;;;;;4974573;28;20213;-48
2021/03/23 01:18:55;;;;;;;14.80;4.60;;;;;;;;;;4983662;28;20272;-46
2021/03/23 01:21:20;;;;;;;10.43;4.57;;;;;;;;;;4982224;28;20676;-47
2021/03/23 01:23:45;;;;;;;10.00;4.80;;;;;;;;;;4985723;28;20184;-47
2021/03/23 01:26:11;;;;;;;8.60;4.70;;;;;;;;;;4988527;28;20255;-47
2021/03/23 01:28:36;;;;;;;11.80;5.40;;;;;;;;;;4982430;28;20619;-46
2021/03/23 01:31:01;;;;;;;10.33;5.10;;;;;;;;;;4969906;28;20184;-47
2021/03/23 01:33:27;;;;;;;8.70;5.03;;;;;;;;;;4987028;28;20283;-46
2021/03/23 01:35:52;;;;;;;11.00;5.23;;;;;;;;;;4998268;28;20875;-46
2021/03/23 01:38:18;;;;;;;11.07;4.80;;;;;;;;;;4992498;28;20187;-48
2021/03/23 01:40:44;;;;;;;11.93;5.30;;;;;;;;;;4987754;28;20688;-46
2021/03/23 01:43:23;;;;;;;11.40;5.53;;;;;;;;;;4977598;28;20195;-47
2021/03/23 01:45:50;;;;;;;11.03;5.57;;;;;;;;;;4986987;28;20223;-46
2021/03/23 01:48:22;;;;;;;11.70;5.50;;;;;;;;;;4966693;28;20184;-47
2021/03/23 01:51:01;;;;;;;10.10;5.33;;;;;;;;;;4988444;28;20190;-46
2021/03/23 01:53:29;;;;;;;12.37;5.27;;;;;;;;;;4985028;28;20198;-46
2021/03/23 01:55:57;;;;;;;12.83;5.10;;;;;;;;;;4977683;28;20714;-46
2021/03/23 01:58:23;;;;;;;9.43;5.03;;;;;;;;;;4982933;28;20184;-47
2021/03/23 02:00:49;;;;;;;7.77;4.80;;;;;;;;;;4989278;28;20195;-46
2021/03/23 02:03:16;;;;;;;10.70;5.80;;;;;;;;;;4984245;28;20327;-47
2021/03/23 02:05:42;;;;;;;8.70;5.07;;;;;;;;;;4991556;28;20227;-47
2021/03/23 02:08:08;;;;;;;6.37;4.80;;;;;;;;;;4975941;28;20215;-47
2021/03/23 02:10:37;;;;;;;9.57;5.17;;;;;;;;;;4990282;28;20687;-47
2021/03/23 02:13:05;;;;;;;8.03;5.20;;;;;;;;;;4983064;28;20196;-46
2021/03/23 02:15:30;;;;;;;12.80;4.70;;;;;;;;;;4986548;28;20219;-47
2021/03/23 02:18:09;;;;;;;9.63;4.40;;;;;;;;;;4970652;28;20192;-47
2021/03/23 02:20:36;;;;;;;7.17;4.37;;;;;;;;;;4980938;28;20568;-48
2021/03/23 02:23:09;;;;;;;10.50;4.13;;;;;;;;;;4968911;28;20191;-47
2021/03/23 02:25:36;;;;;;;6.73;4.43;;;;;;;;;;4980394;28;20217;-47
2021/03/23 02:28:02;;;;;;;8.10;4.47;;;;;;;;;;4995414;28;20192;-46
2021/03/23 02:30:34;;;;;;;9.00;4.60;;;;;;;;;;4982693;28;20176;-46
2021/03/23 02:33:00;;;;;;;8.50;4.97;;;;;;;;;;4986427;28;20203;-46
2021/03/23 02:35:25;;;;;;;7.37;4.90;;;;;;;;;;4978415;28;20212;-46
2021/03/23 02:37:51;;;;;;;7.53;4.27;;;;;;;;;;4993443;28;20196;-48
2021/03/23 02:40:16;;;;;;;7.60;5.17;;;;;;;;;;4994882;28;20203;-49
2021/03/23 02:42:41;;;;;;;7.20;4.67;;;;;;;;;;4993185;28;20194;-46
2021/03/23 02:45:08;;;;;;;7.67;4.77;;;;;;;;;;4976560;28;20212;-47
2021/03/23 02:47:33;;;;;;;8.27;4.10;;;;;;;;;;4986770;28;20214;-50
2021/03/23 02:49:58;;;;;;;8.07;4.37;;;;;;;;;;4989010;28;20192;-48
2021/03/23 02:52:23;;;;;;;8.80;4.90;;;;;;;;;;4985227;28;20188;-47
2021/03/23 02:54:49;;;;;;;6.10;4.30;;;;;;;;;;4982395;28;20218;-47
2021/03/23 02:57:14;;;;;;;9.07;4.07;;;;;;;;;;4977800;28;20184;-46
2021/03/23 02:59:39;;;;;;;7.27;4.00;;;;;;;;;;4979030;28;20664;-49
2021/03/23 03:02:06;;;;;;;5.37;3.60;;;;;;;;;;4981488;28;20192;-46
2021/03/23 03:04:36;;;;;;;6.07;3.77;;;;;;;;;;4980705;28;20284;-46
2021/03/23 03:07:02;;;;;;;5.13;3.40;;;;;;;;;;4982337;28;20695;-45
2021/03/23 03:09:27;;;;;;;7.93;3.47;;;;;;;;;;4988447;28;20192;-47
2021/03/23 03:11:52;;;;;;;11.23;3.80;;;;;;;;;;4984339;28;20188;-46
2021/03/23 03:14:19;;;;;;;5.67;3.23;;;;;;;;;;4966342;28;20204;-48
2021/03/23 03:16:47;;;;;;;5.03;3.33;;;;;;;;;;4974889;28;20184;-47
2021/03/23 03:19:13;;;;;;;5.40;3.50;;;;;;;;;;4978110;28;20599;-50
2021/03/23 03:21:39;;;;;;;4.10;3.27;;;;;;;;;;4986754;28;20679;-47
2021/03/23 03:24:05;;;;;;;5.37;3.67;;;;;;;;;;4984026;28;20223;-48
2021/03/23 03:26:30;;;;;;;5.90;4.07;;;;;;;;;;4979264;28;20218;-48
2021/03/23 03:28:56;;;;;;;7.77;3.97;;;;;;;;;;4978903;28;20181;-47
2021/03/23 03:31:23;;;;;;;6.80;3.70;;;;;;;;;;4987859;28;20202;-47
2021/03/23 03:33:50;;;;;;;5.80;3.60;;;;;;;;;;4975361;28;20554;-48
2021/03/23 03:36:17;;;;;;;7.53;3.90;;;;;;;;;;4990061;28;20294;-46
2021/03/23 03:38:42;;;;;;;10.17;5.20;;;;;;;;;;4983020;28;20206;-47
2021/03/23 03:41:07;;;;;;;7.70;4.53;;;;;;;;;;4970049;28;20668;-46
2021/03/23 03:43:33;;;;;;;10.53;4.93;;;;;;;;;;4985140;28;20184;-46
2021/03/23 03:46:00;;;;;;;7.73;4.57;;;;;;;;;;4978371;28;20306;-46
2021/03/23 03:48:25;;;;;;;10.53;5.13;;;;;;;;;;4995017;28;20199;-47
2021/03/23 03:50:51;;;;;;;9.43;4.97;;;;;;;;;;4974596;28;20188;-50
2021/03/23 03:53:16;;;;;;;9.00;5.23;;;;;;;;;;4986697;28;20319;-46
2021/03/23 03:55:43;;;;;;;9.13;5.73;;;;;;;;;;4967182;28;20207;-47
2021/03/23 03:58:10;;;;;;;9.97;5.20;;;;;;;;;;4992586;28;20660;-48
2021/03/23 04:00:36;;;;;;;7.97;5.50;;;;;;;;;;4995545;28;20606;-47
2021/03/23 04:03:04;;;;;;;11.80;5.93;;;;;;;;;;4981004;28;20207;-46
2021/03/23 04:05:35;;;;;;;10.30;6.00;;;;;;;;;;4979064;28;20212;-47
2021/03/23 04:08:02;;;;;;;10.80;6.67;;;;;;;;;;4976786;28;20184;-47
2021/03/23 04:10:28;;;;;;;11.63;6.33;;;;;;;;;;4996612;28;20203;-47
2021/03/23 04:12:54;;;;;;;10.07;6.30;;;;;;;;;;4978348;28;20563;-47
2021/03/23 04:15:41;;;;;;;9.97;7.33;;;;;;;;;;4983261;28;20216;-46
2021/03/23 04:18:08;;;;;;;11.80;6.77;;;;;;;;;;4983332;28;20188;-47
2021/03/23 04:20:33;;;;;;;10.17;6.80;;;;;;;;;;4993027;28;20196;-46
2021/03/23 04:23:00;;;;;;;11.93;6.77;;;;;;;;;;4993969;28;20571;-46
2021/03/23 04:25:29;;;;;;;14.67;7.40;;;;;;;;;;4963604;28;20238;-46
2021/03/23 04:27:55;;;;;;;9.20;6.57;;;;;;;;;;4976744;28;20533;-47
2021/03/23 04:30:21;;;;;;;10.70;7.03;;;;;;;;;;4979069;28;20283;-50
2021/03/23 04:32:48;;;;;;;11.50;6.93;;;;;;;;;;4987210;28;20190;-46
2021/03/23 04:35:28;;;;;;;9.40;6.40;;;;;;;;;;4978322;28;20213;-47
2021/03/23 04:37:54;;;;;;;7.80;6.13;;;;;;;;;;4974760;28;20188;-47
2021/03/23 04:40:20;;;;;;;11.03;6.17;;;;;;;;;;4980108;28;20614;-48
2021/03/23 04:42:46;;;;;;;8.60;5.67;;;;;;;;;;4980118;28;20185;-48
2021/03/23 04:45:11;;;;;;;10.50;5.40;;;;;;;;;;4977410;28;20696;-48
2021/03/23 04:47:37;;;;;;;13.50;4.97;;;;;;;;;;4979556;28;20223;-48
2021/03/23 04:50:03;;;;;;;9.97;5.40;;;;;;;;;;4984341;28;20216;-47
2021/03/23 04:52:29;;;;;;;10.80;6.10;;;;;;;;;;4987681;28;20188;-47
2021/03/23 04:54:54;;;;;;;8.27;4.97;;;;;;;;;;4984948;28;20211;-47
2021/03/23 04:57:19;;;;;;;6.93;5.07;;;;;;;;;;4977963;28;20268;-49
2021/03/23 04:59:44;;;;;;;12.00;4.93;;;;;;;;;;4984346;28;20322;-46
2021/03/23 05:02:10;;;;;;;12.47;5.10;;;;;;;;;;4966589;28;20180;-48
2021/03/23 05:04:35;;;;;;;8.53;4.93;;;;;;;;;;4976660;28;20219;-47
2021/03/23 05:07:00;;;;;;;7.80;4.50;;;;;;;;;;4984212;28;20751;-46
2021/03/23 05:09:26;;;;;;;7.00;5.20;;;;;;;;;;4995330;28;20184;-48
2021/03/23 05:11:51;;;;;;;6.77;4.33;;;;;;;;;;4983725;28;20633;-48
2021/03/23 05:14:16;;;;;;;9.20;4.53;;;;;;;;;;4971994;28;20193;-47
2021/03/23 05:16:42;;;;;;;6.77;4.40;;;;;;;;;;4983603;28;20199;-50
2021/03/23 05:19:07;;;;;;;6.33;4.53;;;;;;;;;;4994195;28;20291;-47
2021/03/23 05:21:32;;;;;;;8.07;4.53;;;;;;;;;;4996853;28;20202;-48
2021/03/23 05:24:00;;;;;;;7.33;4.63;;;;;;;;;;4971285;28;20795;-47
2021/03/23 05:26:25;;;;;;;6.93;4.77;;;;;;;;;;4977925;28;20291;-47
2021/03/23 05:28:52;;;;;;;5.60;4.20;;;;;;;;;;4987930;28;20716;-49
2021/03/23 05:31:17;;;;;;;7.67;4.63;;;;;;;;;;4983865;28;20192;-49
2021/03/23 05:33:43;;;;;;;6.47;4.60;;;;;;;;;;4985667;28;20219;-47
2021/03/23 05:36:09;;;;;;;5.90;3.83;;;;;;;;;;4979512;28;20204;-48
2021/03/23 05:38:34;;;;;;;7.63;4.43;;;;;;;;;;4985599;28;20188;-47
2021/03/23 05:41:12;;;;;;;7.17;4.17;;;;;;;;;;4983192;28;20196;-46
2021/03/23 05:44:22;;;;;;;7.03;4.80;;;;;;;;;;4990595;28;20187;-45
2021/03/23 05:46:49;;;;;;;8.30;4.80;;;;;;;;;;4949027;28;20645;-46
2021/03/23 05:49:32;;;;;;;7.67;4.30;;;;;;;;;;4947517;28;20619;-47
2021/03/23 05:52:17;;;;;;;5.70;4.00;;;;;;;;;;4953932;28;20539;-48
2021/03/23 05:54:54;;;;;;;8.37;4.63;;;;;;;;;;4983505;28;20219;-47
2021/03/23 05:57:25;;;;;;;11.07;5.07;;;;;;;;;;4987659;28;20191;-48
2021/03/23 06:00:01;;;;;;;11.40;5.80;;;;;;;;;;4974432;28;20575;-47
2021/03/23 06:02:53;;;;;;;7.67;5.37;;;;;;;;;;4981798;28;20204;-48
2021/03/23 06:05:39;;;;;;;8.30;4.93;;;;;;;;;;4986881;28;20212;-51
2021/03/23 06:08:15;;;;;;;12.53;5.43;;;;;;;;;;4980801;28;20613;-47
2021/03/23 06:10:40;;;;;;;9.53;5.13;;;;;;;;;;4982815;28;20275;-46
2021/03/23 06:13:31;;;;;;;6.70;5.20;;;;;;;;;;4973154;28;20263;-47
2021/03/23 06:16:05;;;;;;;10.20;6.00;;;;;;;;;;4986565;28;20287;-47
2021/03/23 06:18:51;;;;;;;8.20;5.10;;;;;;;;;;4983764;28;20291;-46
2021/03/23 06:21:34;;;;;;;6.20;4.33;;;;;;;;;;4986012;28;20566;-47
2021/03/23 06:24:14;;;;;;;7.00;5.17;;;;;;;;;;4988021;28;20531;-48
2021/03/23 06:26:52;;;;;;;9.83;5.00;;;;;;;;;;4985242;28;20216;-47
2021/03/23 06:29:41;;;;;;;9.60;5.00;;;;;;;;;;4991672;28;20678;-46
2021/03/23 06:32:18;;;;;;;6.07;4.80;;;;;;;;;;4987808;28;20560;-48
2021/03/23 06:34:44;;;;;;;9.47;5.40;;;;;;;;;;4983871;28;20302;-47
2021/03/23 06:37:30;;;;;;;6.73;5.30;;;;;;;;;;4987056;28;20274;-47
2021/03/23 06:39:57;;;;;;;9.33;5.53;;;;;;;;;;4970403;28;20692;-48
2021/03/23 06:42:37;;;;;;;11.03;6.30;;;;;;;;;;4997459;28;20744;-49
2021/03/23 06:45:25;;;;;;;10.80;5.73;;;;;;;;;;4992439;28;20709;-46
2021/03/23 06:47:51;;;;;;;9.10;5.77;;;;;;;;;;4988661;28;20290;-48
2021/03/23 06:50:22;;;;;;;9.83;5.80;;;;;;;;;;4989964;28;20275;-46
2021/03/23 06:53:08;;;;;;;12.03;6.13;;;;;;;;;;4993257;28;20283;-46
2021/03/23 06:55:34;;;;;;;16.10;6.50;;;;;;;;;;4980889;28;20221;-47
2021/03/23 06:58:00;;;;;;;8.87;6.17;;;;;;;;;;4987207;28;20267;-46
2021/03/23 07:00:25;;;;;;;11.20;6.67;;;;;;;;;;4982550;28;20657;-47
2021/03/23 07:02:55;;;;;;;9.73;6.97;;;;;;;;;;4986594;28;20216;-47
2021/03/23 07:05:35;;;;;;;9.77;6.50;;;;;;;;;;4972037;28;20630;-48
2021/03/23 07:08:09;;;;;;;12.80;6.63;;;;;;;;;;4986203;28;20184;-47
2021/03/23 07:10:42;;;;;;;10.30;6.30;;;;;;;;;;4986764;28;20188;-46
2021/03/23 07:13:25;;;;;;;13.53;6.93;;;;;;;;;;4982222;28;20193;-47
2021/03/23 07:16:12;;;;;;;9.33;6.20;;;;;;;;;;4985185;28;20223;-46
2021/03/23 07:20:58;;;;;;;9.93;6.30;;;;;;;;;;5089155;27;20561;-45
2021/03/23 07:23:31;;;;;;;14.30;6.33;;;;;;;;;;5083363;28;20270;-46
2021/03/23 07:26:14;;;;;;;10.80;6.57;;;;;;;;;;5074790;28;20692;-46
2021/03/23 07:28:42;;;;;;;11.43;6.30;;;;;;;;;;5084434;28;20188;-46
2021/03/23 07:31:44;;;;;;;11.73;6.20;;;;;;;;;;5083172;28;20197;-44
2021/03/23 07:34:15;;;;;;;8.20;5.40;;;;;;;;;;5081460;28;20187;-45
2021/03/23 07:36:44;;;;;;;9.90;5.93;;;;;;;;;;5081761;28;20197;-45
2021/03/23 07:39:21;;;;;;;9.97;7.17;;;;;;;;;;5081610;28;20197;-47
2021/03/23 07:41:51;;;;;;;9.67;6.80;;;;;;;;;;5073178;28;20191;-46
2021/03/23 07:44:37;;;;;;;13.13;8.13;;;;;;;;;;5079235;28;20220;-47
2021/03/23 07:47:17;;;;;;;9.17;7.10;;;;;;;;;;5080356;28;20181;-45
2021/03/23 07:49:47;;;;;;;9.90;6.60;;;;;;;;;;5069659;28;20185;-47
2021/03/23 07:52:18;;;;;;;11.13;7.00;;;;;;;;;;5079973;28;20177;-47
2021/03/23 07:54:44;;;;;;;11.07;6.27;;;;;;;;;;5071416;28;20203;-45
2021/03/23 07:57:33;;;;;;;8.83;6.20;;;;;;;;;;5068935;28;20180;-46
2021/03/23 08:00:15;;;;;;;9.53;5.70;;;;;;;;;;5080308;28;20204;-46
2021/03/23 08:02:59;;;;;;;10.17;5.90;;;;;;;;;;5076676;28;20296;-46
2021/03/23 08:05:27;;;;;;;8.27;5.70;;;;;;;;;;5081975;28;20226;-45
2021/03/23 08:08:17;;;;;;;11.53;5.63;;;;;;;;;;5085321;28;20276;-46
2021/03/23 08:11:07;;;;;;;7.90;4.63;;;;;;;;;;5082242;28;20181;-46
2021/03/23 08:13:51;;;;;;;7.30;5.00;;;;;;;;;;5079198;28;20692;-45
2021/03/23 08:16:55;;;;;;;7.17;4.83;;;;;;;;;;5084284;28;20208;-46
2021/03/23 08:19:39;;;;;;;9.30;6.03;;;;;;;;;;5068588;28;20208;-46
2021/03/23 08:23:01;;;;;;;9.53;5.90;;;;;;;;;;5080783;28;20586;-45
2021/03/23 08:25:47;;;;;;;7.37;5.80;;;;;;;;;;5060026;28;20699;-45
2021/03/23 08:28:25;;;;;;;12.17;6.70;;;;;;;;;;5073350;28;20605;-47
2021/03/23 08:31:22;;;;;;;10.10;6.00;;;;;;;;;;5075050;28;20177;-46
2021/03/23 08:34:02;;;;;;;11.93;6.23;;;;;;;;;;5062090;28;20731;-46
2021/03/23 08:36:49;;;;;;;10.17;7.03;;;;;;;;;;5075992;28;20212;-45
2021/03/23 08:39:25;;;;;;;8.27;5.80;;;;;;;;;;5068982;28;20205;-45
2021/03/23 08:41:58;;;;;;;14.30;6.70;;;;;;;;;;5067213;28;20247;-46
2021/03/23 08:44:32;;;;;;;7.30;5.63;;;;;;;;;;5072299;28;20195;-47
2021/03/23 08:47:20;;;;;;;10.90;6.57;;;;;;;;;;5067847;28;20174;-43
2021/03/23 08:49:47;;;;;;;8.50;6.60;;;;;;;;;;5069503;28;20288;-45
2021/03/23 08:52:40;;;;;;;13.03;7.03;;;;;;;;;;5066521;28;20189;-48
2021/03/23 08:55:33;;;;;;;9.70;5.90;;;;;;;;;;5058106;28;20213;-45
2021/03/23 08:58:20;;;;;;;10.47;6.50;;;;;;;;;;5050937;28;20189;-45
2021/03/23 09:00:55;;;;;;;9.97;7.07;;;;;;;;;;5066318;28;20454;-46
2021/03/23 09:03:20;;;;;;;10.27;7.93;;;;;;;;;;5072084;28;20184;-46
2021/03/23 09:05:51;;;;;;;9.03;6.40;;;;;;;;;;5066033;28;20819;-46
2021/03/23 09:08:20;;;;;;;8.70;6.50;;;;;;;;;;5060213;28;20191;-46
2021/03/23 09:10:59;;;;;;;6.77;5.90;;;;;;;;;;5063349;28;20181;-45
2021/03/23 09:13:53;;;;;;;7.00;5.40;;;;;;;;;;5071977;28;20181;-45
2021/03/23 09:16:46;;;;;;;7.33;5.50;;;;;;;;;;5067110;28;20228;-45
2021/03/23 09:19:30;;;;;;;8.07;4.97;;;;;;;;;;5064910;28;20313;-45
2021/03/23 09:21:56;;;;;;;8.10;5.13;;;;;;;;;;5066975;28;20193;-46
2021/03/23 09:24:41;;;;;;;7.40;5.07;;;;;;;;;;5066645;28;20646;-47
2021/03/23 09:27:14;;;;;;;6.60;4.50;;;;;;;;;;5060308;28;20189;-45
2021/03/23 09:29:45;;;;;;;7.67;4.60;;;;;;;;;;5071137;28;20181;-48
2021/03/23 09:32:20;;;;;;;6.53;4.43;;;;;;;;;;5062501;28;20197;-46
2021/03/23 09:35:08;;;;;;;6.57;4.60;;;;;;;;;;5070403;28;20216;-45
2021/03/23 09:38:18;;;;;;;7.63;5.00;;;;;;;;;;5062285;28;20699;-47
2021/03/23 09:41:22;;;;;;;8.30;4.53;;;;;;;;;;5068496;28;20201;-46
2021/03/23 09:44:29;;;;;;;7.37;4.37;;;;;;;;;;5050525;28;20204;-46
2021/03/23 09:46:58;;;;;;;7.37;5.43;;;;;;;;;;5063000;28;20208;-46
2021/03/23 09:49:42;;;;;;;7.90;6.20;;;;;;;;;;5067050;28;20173;-46
2021/03/23 09:52:17;;;;;;;9.00;6.53;;;;;;;;;;5059128;28;20189;-45
2021/03/23 09:54:58;;;;;;;9.10;6.33;;;;;;;;;;5067295;28;20205;-46
2021/03/23 09:57:27;;;;;;;8.73;6.60;;;;;;;;;;5067302;28;20680;-45
2021/03/23 09:59:57;;;;;;;7.87;6.30;;;;;;;;;;5066525;28;20204;-45
2021/03/23 10:02:30;;;;;;;7.80;6.67;;;;;;;;;;5066062;28;20204;-47
2021/03/23 10:05:13;;;;;;;10.97;6.87;;;;;;;;;;5067407;28;20724;-46
2021/03/23 10:07:39;;;;;;;10.60;8.20;;;;;;;;;;5068792;28;20460;-46
2021/03/23 10:10:27;;;;;;;10.33;7.80;;;;;;;;;;5067393;28;20177;-46
2021/03/23 10:13:14;;;;;;;7.63;6.27;;;;;;;;;;5063261;28;20217;-46
2021/03/23 10:15:40;;;;;;;6.93;6.03;;;;;;;;;;5057572;28;20290;-45
2021/03/23 10:18:17;;;;;;;6.17;5.40;;;;;;;;;;5061748;28;20223;-47
2021/03/23 10:20:56;;;;;;;7.30;5.33;;;;;;;;;;5068985;28;20201;-45
2021/03/23 10:23:24;;;;;;;8.17;5.33;;;;;;;;;;5066013;28;20212;-46
2021/03/23 10:25:49;;;;;;;7.93;5.33;;;;;;;;;;5064310;28;20948;-46
2021/03/23 10:28:23;;;;;;;8.63;5.87;;;;;;;;;;5066917;28;20280;-45
2021/03/23 10:30:58;;;;;;;10.60;6.17;;;;;;;;;;5068383;28;20185;-46
2021/03/23 10:33:30;;;;;;;8.67;6.27;;;;;;;;;;5065232;28;20571;-45
2021/03/23 10:36:01;;;;;;;8.40;5.90;;;;;;;;;;5062307;28;20217;-46
2021/03/23 10:38:27;;;;;;;10.67;6.07;;;;;;;;;;5065667;28;20197;-46
2021/03/23 10:40:55;;;;;;;8.80;6.00;;;;;;;;;;5067150;28;20204;-46
2021/03/23 10:43:30;;;;;;;7.40;4.87;;;;;;;;;;5052210;28;20194;-46
2021/03/23 10:45:58;;;;;;;13.70;6.13;;;;;;;;;;5063211;28;20863;-46
2021/03/23 10:48:37;;;;;;;11.53;5.67;;;;;;;;;;5069458;28;20328;-45
2021/03/23 10:51:25;;;;;;;7.30;4.60;;;;;;;;;;5067320;28;20214;-45
2021/03/23 10:54:09;;;;;;;7.33;4.53;;;;;;;;;;5065206;28;20586;-46
2021/03/23 10:56:45;;;;;;;8.70;5.20;;;;;;;;;;5066243;28;20204;-46
2021/03/23 10:59:24;;;;;;;11.03;5.33;;;;;;;;;;5062886;28;20196;-45
2021/03/23 11:02:13;;;;;;;6.87;5.20;;;;;;;;;;5058519;28;20208;-46
2021/03/23 11:05:05;;;;;;;9.20;5.60;;;;;;;;;;5066242;28;20284;-46
2021/03/23 11:07:33;;;;;;;8.00;5.40;;;;;;;;;;5061461;28;20193;-47
2021/03/23 11:10:00;;;;;;;9.93;5.43;;;;;;;;;;5061454;28;20177;-45
2021/03/23 11:12:27;;;;;;;9.13;5.60;;;;;;;;;;5064227;28;20181;-45
2021/03/23 11:14:54;;;;;;;8.73;4.90;;;;;;;;;;5065235;28;20201;-48
2021/03/23 11:17:22;;;;;;;7.83;4.77;;;;;;;;;;5063410;28;20245;-45
2021/03/23 11:19:51;;;;;;;8.43;4.83;;;;;;;;;;5046780;28;20319;-46
2021/03/23 11:22:23;;;;;;;7.90;5.00;;;;;;;;;;5064675;28;20193;-46
2021/03/23 11:24:48;;;;;;;9.03;5.30;;;;;;;;;;5068172;28;20211;-46
2021/03/23 11:27:14;;;;;;;9.30;4.97;;;;;;;;;;5066217;28;20182;-47
2021/03/23 11:29:39;;;;;;;8.63;4.67;;;;;;;;;;5065079;28;20189;-47
2021/03/23 11:32:05;;;;;;;12.10;5.60;;;;;;;;;;5065118;28;20200;-45
2021/03/23 11:34:30;;;;;;;7.67;4.67;;;;;;;;;;5071853;28;20246;-43
2021/03/23 11:36:55;;;;;;;7.23;5.60;;;;;;;;;;5065821;28;20416;-47
2021/03/23 11:39:21;;;;;;;9.73;5.00;;;;;;;;;;5064387;28;20247;-46
2021/03/23 11:42:07;;;;;;;7.53;5.30;;;;;;;;;;5065766;28;20182;-46
2021/03/23 11:44:37;;;;;;;9.50;5.73;;;;;;;;;;5064938;28;20753;-46
2021/03/23 11:47:25;;;;;;;11.13;5.90;;;;;;;;;;5061930;28;20189;-45
2021/03/23 11:50:23;;;;;;;10.23;6.03;;;;;;;;;;5063068;28;20215;-46
2021/03/23 11:52:52;;;;;;;10.67;5.57;;;;;;;;;;5048850;28;20207;-47
2021/03/23 11:55:22;;;;;;;10.73;6.20;;;;;;;;;;5056461;28;20587;-46
2021/03/23 11:57:48;;;;;;;9.40;5.60;;;;;;;;;;5058427;28;20206;-45
2021/03/23 12:00:14;;;;;;;10.53;5.40;;;;;;;;;;5062897;28;20586;-45
2021/03/23 12:02:41;;;;;;;8.10;5.57;;;;;;;;;;5060976;28;20194;-45
2021/03/23 12:05:08;;;;;;;8.33;5.83;;;;;;;;;;5063358;28;20588;-46
2021/03/23 12:08:00;;;;;;;12.00;6.33;;;;;;;;;;5065550;28;20197;-47
2021/03/23 12:10:36;;;;;;;11.43;6.40;;;;;;;;;;5064811;28;20557;-48
2021/03/23 12:13:40;;;;;;;14.03;6.27;;;;;;;;;;5066403;28;20224;-45
2021/03/23 12:16:19;;;;;;;13.60;6.97;;;;;;;;;;5063827;28;20205;-47
2021/03/23 12:18:57;;;;;;;10.83;6.87;;;;;;;;;;5069946;28;20189;-47
2021/03/23 12:21:24;;;;;;;12.00;6.60;;;;;;;;;;5067119;28;20564;-47
2021/03/23 12:23:50;;;;;;;18.63;7.20;;;;;;;;;;5067407;28;20193;-45
2021/03/23 12:26:15;;;;;;;11.53;7.20;;;;;;;;;;5068532;28;20209;-46
2021/03/23 12:28:41;;;;;;;14.77;7.50;;;;;;;;;;5070937;28;20185;-47
2021/03/23 12:31:08;;;;;;;16.47;7.00;;;;;;;;;;5065578;28;20202;-45
2021/03/23 12:33:33;;;;;;;12.67;6.20;;;;;;;;;;5068566;28;20250;-46
2021/03/23 12:35:59;;;;;;;9.93;6.20;;;;;;;;;;5080733;28;20284;-45
2021/03/23 12:38:24;;;;;;;11.63;6.33;;;;;;;;;;5070690;28;20669;-45
2021/03/23 12:40:49;;;;;;;10.57;5.93;;;;;;;;;;5068180;28;20208;-47
2021/03/23 12:43:24;;;;;;;11.43;6.23;;;;;;;;;;5067472;28;20228;-46
2021/03/23 12:45:50;;;;;;;11.43;6.73;;;;;;;;;;5070878;28;20215;-48
2021/03/23 12:48:16;;;;;;;11.83;7.07;;;;;;;;;;5067788;28;20583;-47
2021/03/23 12:50:41;;;;;;;10.70;6.50;;;;;;;;;;5066625;28;20821;-46
2021/03/23 12:53:12;;;;;;;13.77;6.70;;;;;;;;;;5071812;28;20190;-46
2021/03/23 12:55:41;;;;;;;10.53;6.50;;;;;;;;;;5069776;28;20205;-46
2021/03/23 12:58:15;;;;;;;12.07;7.57;;;;;;;;;;5068403;28;20197;-46
2021/03/23 13:00:41;;;;;;;15.87;7.40;;;;;;;;;;5059014;28;20205;-47
2021/03/23 13:03:12;;;;;;;12.67;6.77;;;;;;;;;;5068705;28;20246;-47
2021/03/23 13:05:37;;;;;;;11.33;6.50;;;;;;;;;;5070160;28;20209;-45
2021/03/23 13:08:06;;;;;;;11.13;7.13;;;;;;;;;;5068031;28;20695;-47
2021/03/23 13:10:39;;;;;;;9.93;7.33;;;;;;;;;;5065406;28;20596;-46
2021/03/23 13:13:38;;;;;;;12.87;7.57;;;;;;;;;;5065341;28;20604;-46
2021/03/23 13:16:04;;;;;;;11.90;7.67;;;;;;;;;;5052458;28;20232;-45
2021/03/23 13:18:30;;;;;;;14.67;7.77;;;;;;;;;;5063192;28;20189;-45
2021/03/23 13:21:00;;;;;;;10.07;7.03;;;;;;;;;;5049382;28;20820;-46
2021/03/23 13:23:50;;;;;;;12.23;7.90;;;;;;;;;;5069095;28;20219;-48
2021/03/23 13:26:15;;;;;;;13.70;7.87;;;;;;;;;;5068676;28;20212;-45
2021/03/23 13:28:57;;;;;;;12.50;7.70;;;;;;;;;;5068448;28;20185;-46
2021/03/23 13:31:28;;;;;;;12.90;8.13;;;;;;;;;;5062121;28;20193;-46
2021/03/23 13:33:54;;;;;;;15.93;8.30;;;;;;;;;;5063132;28;20201;-46
2021/03/23 13:36:27;;;;;;;14.83;8.20;;;;;;;;;;5069445;28;20209;-46
2021/03/23 13:38:53;;;;;;;13.60;9.33;;;;;;;;;;5067454;28;20923;-46
2021/03/23 13:41:18;;;;;;;16.73;9.33;;;;;;;;;;5049381;28;20182;-46
2021/03/23 13:43:46;;;;;;;15.23;9.47;;;;;;;;;;5064059;28;20239;-47
2021/03/23 13:46:31;;;;;;;16.60;9.73;;;;;;;;;;5065573;28;20201;-47
2021/03/23 13:48:56;;;;;;;19.13;9.67;;;;;;;;;;5066108;28;20189;-46
2021/03/23 13:51:21;;;;;;;19.00;10.20;;;;;;;;;;5065786;28;20789;-46
2021/03/23 13:53:47;;;;;;;21.17;10.23;;;;;;;;;;5064267;28;20201;-46
2021/03/23 13:56:12;;;;;;;17.10;9.47;;;;;;;;;;5068639;28;20205;-48
2021/03/23 13:58:37;;;;;;;15.17;9.37;;;;;;;;;;5066574;28;20212;-47
2021/03/23 14:01:05;;;;;;;19.40;10.10;;;;;;;;;;5066843;28;20711;-45
2021/03/23 14:03:30;;;;;;;11.90;8.53;;;;;;;;;;5066029;28;20185;-46
2021/03/23 14:05:56;;;;;;;15.63;10.13;;;;;;;;;;5065462;28;20231;-45
2021/03/23 14:08:35;;;;;;;14.07;9.80;;;;;;;;;;5067175;28;20181;-46
2021/03/23 14:11:03;;;;;;;18.83;9.53;;;;;;;;;;5066329;28;20269;-46
2021/03/23 14:13:29;;;;;;;13.77;9.30;;;;;;;;;;5068347;28;20185;-46
2021/03/23 14:15:54;;;;;;;17.93;9.77;;;;;;;;;;5066428;28;20703;-47
2021/03/23 14:18:21;;;;;;;16.23;10.57;;;;;;;;;;5068585;28;20726;-46
2021/03/23 14:20:47;;;;;;;16.60;10.80;;;;;;;;;;5064002;28;20227;-46
2021/03/23 14:23:17;;;;;;;17.00;10.43;;;;;;;;;;5065632;28;20189;-46
2021/03/23 14:25:48;;;;;;;15.20;10.13;;;;;;;;;;5067816;28;20213;-44
2021/03/23 14:28:23;;;;;;;15.53;9.73;;;;;;;;;;5057413;28;20178;-46
2021/03/23 14:30:49;;;;;;;15.93;10.43;;;;;;;;;;5063405;28;20192;-46
2021/03/23 14:33:14;;;;;;;15.03;9.53;;;;;;;;;;5064567;28;20192;-46
2021/03/23 14:35:40;;;;;;;13.50;8.80;;;;;;;;;;5065927;28;20609;-46
2021/03/23 14:38:06;;;;;;;13.97;9.87;;;;;;;;;;5066470;28;20610;-46
2021/03/23 14:40:35;;;;;;;16.47;11.33;;;;;;;;;;5067135;28;20189;-46
2021/03/23 14:43:04;;;;;;;16.73;11.67;;;;;;;;;;5067844;28;20675;-46
2021/03/23 14:45:30;;;;;;;17.47;11.07;;;;;;;;;;5064737;28;20339;-46
2021/03/23 14:47:56;;;;;;;17.97;11.70;;;;;;;;;;5064510;28;20185;-46
2021/03/23 14:50:21;;;;;;;15.63;10.93;;;;;;;;;;5068855;28;20238;-45
2021/03/23 14:52:49;;;;;;;16.20;9.97;;;;;;;;;;5063455;28;20189;-45
2021/03/23 14:55:19;;;;;;;16.40;11.33;;;;;;;;;;5065734;28;20209;-47
2021/03/23 14:57:46;;;;;;;15.20;10.97;;;;;;;;;;5060851;28;20185;-45
2021/03/23 15:00:26;;;;;;;18.60;12.10;;;;;;;;;;5066684;28;20207;-45
2021/03/23 15:02:51;;;;;;;16.13;11.77;;;;;;;;;;5065395;28;20277;-46
2021/03/23 15:05:17;;;;;;;18.50;11.87;;;;;;;;;;5065987;28;20251;-45